sensor_id;sensor_type;location;lat;lon;timestamp;temperature;humidity
24146;DHT22;12308;50.948;4.706;2022-08-04T00:02:09;24.20;99.90
24146;DHT22;12308;50.948;4.706;2022-08-04T00:04:48;24.10;99.90
24146;DHT22;12308;50.948;4.706;2022-08-04T00:10:00;24.10;99.90
24146;DHT22;12308;50.948;4.706;2022-08-04T00:12:33;24.00;99.90
24146;DHT22;12308;50.948;4.706;2022-08-04T00:15:03;24.00;99.90
24146;DHT22;12308;50.948;4.706;2022-08-04T00:17:40;24.10;99.90
24146;DHT22;12308;50.948;4.706;2022-08-04T00:20:10;24.00;99.90
24146;DHT22;12308;50.948;4.706;2022-08-04T00:22:39;23.90;99.90
24146;DHT22;12308;50.948;4.706;2022-08-04T00:25:05;23.90;99.90
24146;DHT22;12308;50.948;4.706;2022-08-04T00:27:31;23.90;99.90
24146;DHT22;12308;50.948;4.706;2022-08-04T00:29:58;23.80;99.90
24146;DHT22;12308;50.948;4.706;2022-08-04T00:32:27;23.80;99.90
24146;DHT22;12308;50.948;4.706;2022-08-04T00:34:57;23.70;99.90
24146;DHT22;12308;50.948;4.706;2022-08-04T00:37:24;23.70;99.90
24146;DHT22;12308;50.948;4.706;2022-08-04T00:39:52;23.70;99.90
24146;DHT22;12308;50.948;4.706;2022-08-04T00:42:41;23.60;99.90
24146;DHT22;12308;50.948;4.706;2022-08-04T00:50:21;23.60;99.90
24146;DHT22;12308;50.948;4.706;2022-08-04T00:53:07;23.50;99.90
24146;DHT22;12308;50.948;4.706;2022-08-04T00:58:54;23.20;99.90
24146;DHT22;12308;50.948;4.706;2022-08-04T01:04:38;23.30;99.90
24146;DHT22;12308;50.948;4.706;2022-08-04T01:12:34;23.20;99.90
24146;DHT22;12308;50.948;4.706;2022-08-04T01:17:58;23.30;99.90
24146;DHT22;12308;50.948;4.706;2022-08-04T01:20:33;23.10;99.90
24146;DHT22;12308;50.948;4.706;2022-08-04T01:26:17;23.00;99.90
24146;DHT22;12308;50.948;4.706;2022-08-04T01:29:08;23.10;99.90
24146;DHT22;12308;50.948;4.706;2022-08-04T01:32:01;23.00;99.90
24146;DHT22;12308;50.948;4.706;2022-08-04T01:34:41;23.00;99.90
24146;DHT22;12308;50.948;4.706;2022-08-04T01:40:02;22.80;99.90
24146;DHT22;12308;50.948;4.706;2022-08-04T01:42:31;22.70;99.90
24146;DHT22;12308;50.948;4.706;2022-08-04T01:45:00;22.50;99.90
24146;DHT22;12308;50.948;4.706;2022-08-04T01:47:28;22.50;99.90
24146;DHT22;12308;50.948;4.706;2022-08-04T01:50:03;22.50;99.90
24146;DHT22;12308;50.948;4.706;2022-08-04T01:52:31;22.40;99.90
24146;DHT22;12308;50.948;4.706;2022-08-04T01:54:59;22.40;99.90
24146;DHT22;12308;50.948;4.706;2022-08-04T01:57:25;22.40;99.90
24146;DHT22;12308;50.948;4.706;2022-08-04T01:59:52;22.40;99.90
24146;DHT22;12308;50.948;4.706;2022-08-04T02:02:21;22.40;99.90
24146;DHT22;12308;50.948;4.706;2022-08-04T02:04:48;22.50;99.90
24146;DHT22;12308;50.948;4.706;2022-08-04T02:12:54;22.80;99.90
24146;DHT22;12308;50.948;4.706;2022-08-04T02:15:30;22.80;99.90
24146;DHT22;12308;50.948;4.706;2022-08-04T02:20:37;22.70;99.90
24146;DHT22;12308;50.948;4.706;2022-08-04T02:23:08;22.70;99.90
24146;DHT22;12308;50.948;4.706;2022-08-04T02:25:44;22.60;99.90
24146;DHT22;12308;50.948;4.706;2022-08-04T02:33:46;22.50;99.90
24146;DHT22;12308;50.948;4.706;2022-08-04T02:36:36;22.40;99.90
24146;DHT22;12308;50.948;4.706;2022-08-04T02:39:05;22.30;99.90
24146;DHT22;12308;50.948;4.706;2022-08-04T02:41:32;22.40;99.90
24146;DHT22;12308;50.948;4.706;2022-08-04T02:44:03;22.40;99.90
24146;DHT22;12308;50.948;4.706;2022-08-04T02:46:31;22.50;99.90
24146;DHT22;12308;50.948;4.706;2022-08-04T02:48:57;22.40;99.90
24146;DHT22;12308;50.948;4.706;2022-08-04T02:51:49;22.50;99.90
24146;DHT22;12308;50.948;4.706;2022-08-04T02:54:17;22.40;99.90
24146;DHT22;12308;50.948;4.706;2022-08-04T02:56:44;22.30;99.90
24146;DHT22;12308;50.948;4.706;2022-08-04T02:59:11;22.30;99.90
24146;DHT22;12308;50.948;4.706;2022-08-04T03:01:39;22.10;99.90
24146;DHT22;12308;50.948;4.706;2022-08-04T03:04:19;22.00;99.90
24146;DHT22;12308;50.948;4.706;2022-08-04T03:30:09;21.80;99.90
24146;DHT22;12308;50.948;4.706;2022-08-04T03:39:04;21.70;99.90
24146;DHT22;12308;50.948;4.706;2022-08-04T03:47:39;21.80;99.90
24146;DHT22;12308;50.948;4.706;2022-08-04T03:50:41;21.70;99.90
24146;DHT22;12308;50.948;4.706;2022-08-04T03:56:38;21.80;99.90
24146;DHT22;12308;50.948;4.706;2022-08-04T04:13:21;21.70;99.90
24146;DHT22;12308;50.948;4.706;2022-08-04T04:16:53;21.80;99.90
24146;DHT22;12308;50.948;4.706;2022-08-04T04:19:26;21.80;99.90
24146;DHT22;12308;50.948;4.706;2022-08-04T04:54:27;22.20;99.90
24146;DHT22;12308;50.948;4.706;2022-08-04T04:57:10;22.30;99.90
24146;DHT22;12308;50.948;4.706;2022-08-04T05:00:04;22.40;99.90
24146;DHT22;12308;50.948;4.706;2022-08-04T05:11:57;22.80;99.90
24146;DHT22;12308;50.948;4.706;2022-08-04T05:14:50;22.90;99.90
24146;DHT22;12308;50.948;4.706;2022-08-04T05:17:28;22.80;99.90
24146;DHT22;12308;50.948;4.706;2022-08-04T05:20:15;22.80;99.90
24146;DHT22;12308;50.948;4.706;2022-08-04T05:22:58;22.90;99.90
24146;DHT22;12308;50.948;4.706;2022-08-04T05:28:24;22.90;99.90
24146;DHT22;12308;50.948;4.706;2022-08-04T05:30:52;22.80;99.90
24146;DHT22;12308;50.948;4.706;2022-08-04T05:33:20;22.80;99.90
24146;DHT22;12308;50.948;4.706;2022-08-04T05:35:53;23.00;99.90
24146;DHT22;12308;50.948;4.706;2022-08-04T05:38:28;23.00;99.90
24146;DHT22;12308;50.948;4.706;2022-08-04T05:40:56;22.90;99.90
24146;DHT22;12308;50.948;4.706;2022-08-04T05:43:22;23.00;99.90
24146;DHT22;12308;50.948;4.706;2022-08-04T05:45:50;23.20;99.90
24146;DHT22;12308;50.948;4.706;2022-08-04T05:48:16;23.20;99.90
24146;DHT22;12308;50.948;4.706;2022-08-04T05:50:45;23.40;99.90
24146;DHT22;12308;50.948;4.706;2022-08-04T05:53:12;23.50;99.90
24146;DHT22;12308;50.948;4.706;2022-08-04T05:55:38;23.70;99.90
24146;DHT22;12308;50.948;4.706;2022-08-04T05:58:05;23.80;99.90
24146;DHT22;12308;50.948;4.706;2022-08-04T06:00:32;24.00;99.90
24146;DHT22;12308;50.948;4.706;2022-08-04T06:02:59;24.00;99.90
24146;DHT22;12308;50.948;4.706;2022-08-04T06:05:26;24.20;99.90
24146;DHT22;12308;50.948;4.706;2022-08-04T06:07:52;24.00;99.90
24146;DHT22;12308;50.948;4.706;2022-08-04T06:10:18;24.00;99.90
24146;DHT22;12308;50.948;4.706;2022-08-04T06:12:51;23.90;99.90
24146;DHT22;12308;50.948;4.706;2022-08-04T06:15:19;23.90;99.90
24146;DHT22;12308;50.948;4.706;2022-08-04T06:17:48;24.20;99.90
24146;DHT22;12308;50.948;4.706;2022-08-04T06:20:17;24.40;99.90
24146;DHT22;12308;50.948;4.706;2022-08-04T06:22:48;24.70;99.90
24146;DHT22;12308;50.948;4.706;2022-08-04T06:25:18;24.80;99.90
24146;DHT22;12308;50.948;4.706;2022-08-04T06:27:46;25.00;99.90
24146;DHT22;12308;50.948;4.706;2022-08-04T06:30:12;25.20;99.90
24146;DHT22;12308;50.948;4.706;2022-08-04T06:32:42;25.30;99.90
24146;DHT22;12308;50.948;4.706;2022-08-04T06:35:34;25.00;99.90
24146;DHT22;12308;50.948;4.706;2022-08-04T06:38:01;25.00;99.90
24146;DHT22;12308;50.948;4.706;2022-08-04T06:40:27;24.70;99.90
24146;DHT22;12308;50.948;4.706;2022-08-04T06:42:54;24.80;99.90
24146;DHT22;12308;50.948;4.706;2022-08-04T06:45:21;24.70;99.90
24146;DHT22;12308;50.948;4.706;2022-08-04T06:47:47;24.60;99.90
24146;DHT22;12308;50.948;4.706;2022-08-04T06:50:14;24.60;99.90
24146;DHT22;12308;50.948;4.706;2022-08-04T06:52:40;24.50;99.90
24146;DHT22;12308;50.948;4.706;2022-08-04T06:55:08;24.50;99.90
24146;DHT22;12308;50.948;4.706;2022-08-04T06:57:35;24.60;99.90
24146;DHT22;12308;50.948;4.706;2022-08-04T07:00:08;24.80;99.90
24146;DHT22;12308;50.948;4.706;2022-08-04T07:02:48;25.10;99.90
24146;DHT22;12308;50.948;4.706;2022-08-04T07:05:15;25.20;99.90
24146;DHT22;12308;50.948;4.706;2022-08-04T07:07:43;25.40;99.90
24146;DHT22;12308;50.948;4.706;2022-08-04T07:10:09;25.40;99.90
24146;DHT22;12308;50.948;4.706;2022-08-04T07:12:36;25.60;99.90
24146;DHT22;12308;50.948;4.706;2022-08-04T07:15:04;25.60;99.90
24146;DHT22;12308;50.948;4.706;2022-08-04T07:17:30;25.60;99.90
24146;DHT22;12308;50.948;4.706;2022-08-04T07:19:57;25.50;99.90
24146;DHT22;12308;50.948;4.706;2022-08-04T07:22:26;25.40;99.90
24146;DHT22;12308;50.948;4.706;2022-08-04T07:24:57;25.70;99.90
24146;DHT22;12308;50.948;4.706;2022-08-04T07:27:23;26.00;99.90
24146;DHT22;12308;50.948;4.706;2022-08-04T07:29:50;26.00;99.90
24146;DHT22;12308;50.948;4.706;2022-08-04T07:32:19;26.10;99.90
24146;DHT22;12308;50.948;4.706;2022-08-04T07:34:46;26.00;99.90
24146;DHT22;12308;50.948;4.706;2022-08-04T07:37:13;26.00;99.90
24146;DHT22;12308;50.948;4.706;2022-08-04T07:39:39;26.10;99.90
24146;DHT22;12308;50.948;4.706;2022-08-04T07:42:05;26.30;99.90
24146;DHT22;12308;50.948;4.706;2022-08-04T07:44:33;26.70;99.90
24146;DHT22;12308;50.948;4.706;2022-08-04T07:47:00;26.80;99.90
24146;DHT22;12308;50.948;4.706;2022-08-04T07:49:26;26.80;99.90
24146;DHT22;12308;50.948;4.706;2022-08-04T07:51:55;26.80;99.90
24146;DHT22;12308;50.948;4.706;2022-08-04T07:54:22;26.80;99.90
24146;DHT22;12308;50.948;4.706;2022-08-04T07:56:48;26.90;99.90
24146;DHT22;12308;50.948;4.706;2022-08-04T07:59:19;27.00;99.90
24146;DHT22;12308;50.948;4.706;2022-08-04T08:01:46;26.80;99.90
24146;DHT22;12308;50.948;4.706;2022-08-04T08:04:12;26.80;99.90
24146;DHT22;12308;50.948;4.706;2022-08-04T08:06:40;26.80;99.90
24146;DHT22;12308;50.948;4.706;2022-08-04T08:09:17;26.90;99.90
24146;DHT22;12308;50.948;4.706;2022-08-04T08:11:46;26.70;99.90
24146;DHT22;12308;50.948;4.706;2022-08-04T08:14:12;26.80;99.90
24146;DHT22;12308;50.948;4.706;2022-08-04T08:16:38;26.90;99.90
24146;DHT22;12308;50.948;4.706;2022-08-04T08:19:04;26.90;99.90
24146;DHT22;12308;50.948;4.706;2022-08-04T08:21:30;26.90;99.90
24146;DHT22;12308;50.948;4.706;2022-08-04T08:23:57;27.20;99.90
24146;DHT22;12308;50.948;4.706;2022-08-04T08:26:23;27.30;99.90
24146;DHT22;12308;50.948;4.706;2022-08-04T08:28:49;27.60;99.90
24146;DHT22;12308;50.948;4.706;2022-08-04T08:31:15;27.80;99.90
24146;DHT22;12308;50.948;4.706;2022-08-04T08:33:41;27.60;99.90
24146;DHT22;12308;50.948;4.706;2022-08-04T08:36:16;27.30;99.90
24146;DHT22;12308;50.948;4.706;2022-08-04T08:55:28;26.20;99.90
24146;DHT22;12308;50.948;4.706;2022-08-04T08:58:22;25.90;99.90
24146;DHT22;12308;50.948;4.706;2022-08-04T09:06:41;25.90;99.90
24146;DHT22;12308;50.948;4.706;2022-08-04T09:11:57;26.00;99.90
24146;DHT22;12308;50.948;4.706;2022-08-04T09:14:39;25.70;99.90
24146;DHT22;12308;50.948;4.706;2022-08-04T09:17:12;25.40;99.90
24146;DHT22;12308;50.948;4.706;2022-08-04T09:19:51;25.20;99.90
24146;DHT22;12308;50.948;4.706;2022-08-04T09:22:38;24.90;99.90
24146;DHT22;12308;50.948;4.706;2022-08-04T09:25:12;24.60;99.90
24146;DHT22;12308;50.948;4.706;2022-08-04T09:27:52;24.70;99.90
24146;DHT22;12308;50.948;4.706;2022-08-04T09:30:28;24.60;99.90
24146;DHT22;12308;50.948;4.706;2022-08-04T09:33:23;24.60;99.90
24146;DHT22;12308;50.948;4.706;2022-08-04T09:36:12;24.60;99.90
24146;DHT22;12308;50.948;4.706;2022-08-04T09:41:58;24.20;99.90
24146;DHT22;12308;50.948;4.706;2022-08-04T09:45:02;24.30;99.90
24146;DHT22;12308;50.948;4.706;2022-08-04T09:50:36;24.70;99.90
24146;DHT22;12308;50.948;4.706;2022-08-04T10:01:18;25.20;99.90
24146;DHT22;12308;50.948;4.706;2022-08-04T10:03:48;25.40;99.90
24146;DHT22;12308;50.948;4.706;2022-08-04T10:10:00;25.90;99.90
24146;DHT22;12308;50.948;4.706;2022-08-04T10:19:44;26.10;99.90
24146;DHT22;12308;50.948;4.706;2022-08-04T10:22:32;26.00;99.90
24146;DHT22;12308;50.948;4.706;2022-08-04T10:28:04;26.60;99.90
24146;DHT22;12308;50.948;4.706;2022-08-04T10:30:32;26.90;99.90
24146;DHT22;12308;50.948;4.706;2022-08-04T10:35:46;27.10;99.90
24146;DHT22;12308;50.948;4.706;2022-08-04T10:38:34;27.30;99.90
24146;DHT22;12308;50.948;4.706;2022-08-04T10:44:05;27.10;99.90
24146;DHT22;12308;50.948;4.706;2022-08-04T10:46:42;27.00;99.90
24146;DHT22;12308;50.948;4.706;2022-08-04T10:49:47;26.70;99.90
24146;DHT22;12308;50.948;4.706;2022-08-04T10:52:37;26.70;99.90
24146;DHT22;12308;50.948;4.706;2022-08-04T11:00:27;26.60;99.90
24146;DHT22;12308;50.948;4.706;2022-08-04T11:08:20;26.90;99.90
24146;DHT22;12308;50.948;4.706;2022-08-04T11:16:25;27.20;99.90
24146;DHT22;12308;50.948;4.706;2022-08-04T11:19:09;27.50;99.90
24146;DHT22;12308;50.948;4.706;2022-08-04T11:21:56;27.90;99.90
24146;DHT22;12308;50.948;4.706;2022-08-04T11:24:31;28.30;99.90
24146;DHT22;12308;50.948;4.706;2022-08-04T11:27:03;28.30;99.90
24146;DHT22;12308;50.948;4.706;2022-08-04T11:29:48;28.20;99.90
24146;DHT22;12308;50.948;4.706;2022-08-04T11:32:29;28.20;99.90
24146;DHT22;12308;50.948;4.706;2022-08-04T11:35:00;28.50;99.90
24146;DHT22;12308;50.948;4.706;2022-08-04T11:40:11;28.60;99.90
24146;DHT22;12308;50.948;4.706;2022-08-04T11:42:40;29.10;99.90
24146;DHT22;12308;50.948;4.706;2022-08-04T11:45:13;29.40;99.90
24146;DHT22;12308;50.948;4.706;2022-08-04T11:48:04;29.40;99.90
24146;DHT22;12308;50.948;4.706;2022-08-04T11:50:44;29.00;99.90
24146;DHT22;12308;50.948;4.706;2022-08-04T11:53:13;29.00;99.90
24146;DHT22;12308;50.948;4.706;2022-08-04T11:55:42;29.20;99.90
24146;DHT22;12308;50.948;4.706;2022-08-04T11:58:09;29.00;99.90
24146;DHT22;12308;50.948;4.706;2022-08-04T12:00:38;29.10;99.90
24146;DHT22;12308;50.948;4.706;2022-08-04T12:06:08;28.60;99.90
24146;DHT22;12308;50.948;4.706;2022-08-04T12:21:56;29.00;99.90
24146;DHT22;12308;50.948;4.706;2022-08-04T12:24:30;28.70;99.90
24146;DHT22;12308;50.948;4.706;2022-08-04T12:27:16;28.40;99.90
24146;DHT22;12308;50.948;4.706;2022-08-04T12:29:43;28.60;99.90
24146;DHT22;12308;50.948;4.706;2022-08-04T12:32:19;28.80;99.90
24146;DHT22;12308;50.948;4.706;2022-08-04T12:37:47;28.80;99.90
24146;DHT22;12308;50.948;4.706;2022-08-04T12:40:30;28.50;99.90
24146;DHT22;12308;50.948;4.706;2022-08-04T12:45:49;28.30;99.90
24146;DHT22;12308;50.948;4.706;2022-08-04T12:48:17;28.50;99.90
24146;DHT22;12308;50.948;4.706;2022-08-04T12:50:52;28.70;99.90
24146;DHT22;12308;50.948;4.706;2022-08-04T12:53:21;28.70;99.90
24146;DHT22;12308;50.948;4.706;2022-08-04T12:55:48;28.50;99.90
24146;DHT22;12308;50.948;4.706;2022-08-04T12:58:22;28.40;99.90
24146;DHT22;12308;50.948;4.706;2022-08-04T13:01:01;28.60;99.90
24146;DHT22;12308;50.948;4.706;2022-08-04T13:03:35;28.90;99.90
24146;DHT22;12308;50.948;4.706;2022-08-04T13:06:02;29.20;99.90
24146;DHT22;12308;50.948;4.706;2022-08-04T13:08:28;29.00;99.90
24146;DHT22;12308;50.948;4.706;2022-08-04T13:10:58;29.20;99.90
24146;DHT22;12308;50.948;4.706;2022-08-04T13:13:26;29.20;99.90
24146;DHT22;12308;50.948;4.706;2022-08-04T13:16:00;29.10;99.90
24146;DHT22;12308;50.948;4.706;2022-08-04T13:18:28;29.00;99.90
24146;DHT22;12308;50.948;4.706;2022-08-04T13:20:54;29.20;99.90
24146;DHT22;12308;50.948;4.706;2022-08-04T13:23:24;29.40;99.90
24146;DHT22;12308;50.948;4.706;2022-08-04T13:25:52;29.30;99.90
24146;DHT22;12308;50.948;4.706;2022-08-04T13:28:27;29.30;99.90
24146;DHT22;12308;50.948;4.706;2022-08-04T13:30:59;29.20;99.90
24146;DHT22;12308;50.948;4.706;2022-08-04T13:33:38;29.30;99.90
24146;DHT22;12308;50.948;4.706;2022-08-04T13:36:07;29.10;99.90
24146;DHT22;12308;50.948;4.706;2022-08-04T13:38:36;29.30;99.90
24146;DHT22;12308;50.948;4.706;2022-08-04T13:41:05;29.80;99.90
24146;DHT22;12308;50.948;4.706;2022-08-04T13:43:41;30.30;99.90
24146;DHT22;12308;50.948;4.706;2022-08-04T13:49:16;30.70;99.90
24146;DHT22;12308;50.948;4.706;2022-08-04T13:51:54;30.50;99.90
24146;DHT22;12308;50.948;4.706;2022-08-04T13:54:21;30.60;99.90
24146;DHT22;12308;50.948;4.706;2022-08-04T13:56:57;30.60;99.90
24146;DHT22;12308;50.948;4.706;2022-08-04T13:59:26;31.10;99.90
24146;DHT22;12308;50.948;4.706;2022-08-04T14:02:05;30.70;99.90
24146;DHT22;12308;50.948;4.706;2022-08-04T14:04:37;30.60;99.90
24146;DHT22;12308;50.948;4.706;2022-08-04T14:09:31;30.60;99.90
24146;DHT22;12308;50.948;4.706;2022-08-04T14:12:08;30.60;99.90
24146;DHT22;12308;50.948;4.706;2022-08-04T14:14:36;31.00;99.90
24146;DHT22;12308;50.948;4.706;2022-08-04T14:17:10;31.30;99.90
24146;DHT22;12308;50.948;4.706;2022-08-04T14:20:00;31.80;99.90
24146;DHT22;12308;50.948;4.706;2022-08-04T14:25:23;31.30;99.90
24146;DHT22;12308;50.948;4.706;2022-08-04T14:27:54;31.10;99.90
24146;DHT22;12308;50.948;4.706;2022-08-04T14:30:26;31.10;99.90
24146;DHT22;12308;50.948;4.706;2022-08-04T14:33:04;30.70;99.90
24146;DHT22;12308;50.948;4.706;2022-08-04T14:35:30;30.50;99.90
24146;DHT22;12308;50.948;4.706;2022-08-04T14:38:07;30.30;99.90
24146;DHT22;12308;50.948;4.706;2022-08-04T14:40:36;30.30;99.90
24146;DHT22;12308;50.948;4.706;2022-08-04T14:43:03;30.10;99.90
24146;DHT22;12308;50.948;4.706;2022-08-04T14:45:33;30.10;99.90
24146;DHT22;12308;50.948;4.706;2022-08-04T14:48:00;30.00;99.90
24146;DHT22;12308;50.948;4.706;2022-08-04T14:50:41;30.00;99.90
24146;DHT22;12308;50.948;4.706;2022-08-04T14:53:19;30.10;99.90
24146;DHT22;12308;50.948;4.706;2022-08-04T14:55:48;30.20;99.90
24146;DHT22;12308;50.948;4.706;2022-08-04T14:58:31;30.40;99.90
24146;DHT22;12308;50.948;4.706;2022-08-04T15:00:59;30.60;99.90
24146;DHT22;12308;50.948;4.706;2022-08-04T15:03:27;30.60;99.90
24146;DHT22;12308;50.948;4.706;2022-08-04T15:05:55;30.30;99.90
24146;DHT22;12308;50.948;4.706;2022-08-04T15:08:21;30.40;99.90
24146;DHT22;12308;50.948;4.706;2022-08-04T15:10:47;30.40;99.90
24146;DHT22;12308;50.948;4.706;2022-08-04T15:13:13;30.60;99.90
24146;DHT22;12308;50.948;4.706;2022-08-04T15:15:40;30.50;99.90
24146;DHT22;12308;50.948;4.706;2022-08-04T15:18:09;30.50;99.90
24146;DHT22;12308;50.948;4.706;2022-08-04T15:20:37;30.30;99.90
24146;DHT22;12308;50.948;4.706;2022-08-04T15:23:04;30.30;99.90
24146;DHT22;12308;50.948;4.706;2022-08-04T15:25:36;30.20;99.90
24146;DHT22;12308;50.948;4.706;2022-08-04T15:28:03;30.30;99.90
24146;DHT22;12308;50.948;4.706;2022-08-04T15:30:30;30.40;99.90
24146;DHT22;12308;50.948;4.706;2022-08-04T15:33:00;30.40;99.90
24146;DHT22;12308;50.948;4.706;2022-08-04T15:35:28;30.40;99.90
24146;DHT22;12308;50.948;4.706;2022-08-04T15:40:55;30.70;99.90
24146;DHT22;12308;50.948;4.706;2022-08-04T15:43:45;30.70;99.90
24146;DHT22;12308;50.948;4.706;2022-08-04T15:46:14;30.80;99.90
24146;DHT22;12308;50.948;4.706;2022-08-04T15:48:45;30.50;99.90
24146;DHT22;12308;50.948;4.706;2022-08-04T15:51:11;30.60;99.90
24146;DHT22;12308;50.948;4.706;2022-08-04T15:58:53;30.90;99.90
24146;DHT22;12308;50.948;4.706;2022-08-04T16:01:22;30.90;99.90
24146;DHT22;12308;50.948;4.706;2022-08-04T16:03:52;30.80;99.90
24146;DHT22;12308;50.948;4.706;2022-08-04T16:19:10;30.90;99.90
24146;DHT22;12308;50.948;4.706;2022-08-04T16:24:42;30.80;99.90
24146;DHT22;12308;50.948;4.706;2022-08-04T16:27:09;30.70;99.90
24146;DHT22;12308;50.948;4.706;2022-08-04T16:29:43;30.70;99.90
24146;DHT22;12308;50.948;4.706;2022-08-04T16:32:21;30.40;99.90
24146;DHT22;12308;50.948;4.706;2022-08-04T16:35:00;30.40;99.90
24146;DHT22;12308;50.948;4.706;2022-08-04T16:37:36;30.40;99.90
24146;DHT22;12308;50.948;4.706;2022-08-04T16:40:34;30.70;99.90
24146;DHT22;12308;50.948;4.706;2022-08-04T16:43:21;30.30;99.90
24146;DHT22;12308;50.948;4.706;2022-08-04T16:45:53;29.80;99.90
24146;DHT22;12308;50.948;4.706;2022-08-04T16:48:20;29.70;99.90
24146;DHT22;12308;50.948;4.706;2022-08-04T16:51:02;29.70;99.90
24146;DHT22;12308;50.948;4.706;2022-08-04T16:56:05;29.80;99.90
24146;DHT22;12308;50.948;4.706;2022-08-04T16:58:34;29.90;99.90
24146;DHT22;12308;50.948;4.706;2022-08-04T17:01:11;29.90;99.90
24146;DHT22;12308;50.948;4.706;2022-08-04T17:03:38;29.90;99.90
24146;DHT22;12308;50.948;4.706;2022-08-04T17:06:09;29.80;99.90
24146;DHT22;12308;50.948;4.706;2022-08-04T17:08:35;29.80;99.90
24146;DHT22;12308;50.948;4.706;2022-08-04T17:11:03;29.80;99.90
24146;DHT22;12308;50.948;4.706;2022-08-04T17:13:32;29.80;99.90
24146;DHT22;12308;50.948;4.706;2022-08-04T17:16:00;29.70;99.90
24146;DHT22;12308;50.948;4.706;2022-08-04T17:18:34;29.60;99.90
24146;DHT22;12308;50.948;4.706;2022-08-04T17:21:08;29.60;99.90
24146;DHT22;12308;50.948;4.706;2022-08-04T17:23:39;29.50;99.90
24146;DHT22;12308;50.948;4.706;2022-08-04T17:26:08;29.50;99.90
24146;DHT22;12308;50.948;4.706;2022-08-04T17:28:35;29.50;99.90
24146;DHT22;12308;50.948;4.706;2022-08-04T17:31:01;29.60;99.90
24146;DHT22;12308;50.948;4.706;2022-08-04T17:33:27;29.50;99.90
24146;DHT22;12308;50.948;4.706;2022-08-04T17:35:58;29.30;99.90
24146;DHT22;12308;50.948;4.706;2022-08-04T17:38:43;29.10;99.90
24146;DHT22;12308;50.948;4.706;2022-08-04T17:41:12;28.70;99.90
24146;DHT22;12308;50.948;4.706;2022-08-04T17:54:06;27.80;99.90
24146;DHT22;12308;50.948;4.706;2022-08-04T17:56:37;27.70;99.90
24146;DHT22;12308;50.948;4.706;2022-08-04T18:01:54;27.70;99.90
24146;DHT22;12308;50.948;4.706;2022-08-04T18:06:53;27.50;99.90
24146;DHT22;12308;50.948;4.706;2022-08-04T18:09:33;27.20;99.90
24146;DHT22;12308;50.948;4.706;2022-08-04T18:14:35;26.70;99.90
24146;DHT22;12308;50.948;4.706;2022-08-04T18:17:01;26.60;99.90
24146;DHT22;12308;50.948;4.706;2022-08-04T18:19:27;26.50;99.90
24146;DHT22;12308;50.948;4.706;2022-08-04T18:21:52;26.40;99.90
24146;DHT22;12308;50.948;4.706;2022-08-04T18:24:19;26.40;99.90
24146;DHT22;12308;50.948;4.706;2022-08-04T18:26:44;26.40;99.90
24146;DHT22;12308;50.948;4.706;2022-08-04T18:29:10;26.30;99.90
24146;DHT22;12308;50.948;4.706;2022-08-04T18:31:36;26.30;99.90
24146;DHT22;12308;50.948;4.706;2022-08-04T18:34:03;26.30;99.90
24146;DHT22;12308;50.948;4.706;2022-08-04T18:36:30;26.30;99.90
24146;DHT22;12308;50.948;4.706;2022-08-04T18:38:57;26.20;99.90
24146;DHT22;12308;50.948;4.706;2022-08-04T18:41:23;26.20;99.90
24146;DHT22;12308;50.948;4.706;2022-08-04T18:43:48;26.20;99.90
24146;DHT22;12308;50.948;4.706;2022-08-04T18:46:14;26.10;99.90
24146;DHT22;12308;50.948;4.706;2022-08-04T18:48:39;26.20;99.90
24146;DHT22;12308;50.948;4.706;2022-08-04T18:51:05;26.20;99.90
24146;DHT22;12308;50.948;4.706;2022-08-04T18:53:31;26.20;99.90
24146;DHT22;12308;50.948;4.706;2022-08-04T18:55:56;26.10;99.90
24146;DHT22;12308;50.948;4.706;2022-08-04T18:58:22;26.00;99.90
24146;DHT22;12308;50.948;4.706;2022-08-04T19:00:47;25.90;99.90
24146;DHT22;12308;50.948;4.706;2022-08-04T19:03:13;25.80;99.90
24146;DHT22;12308;50.948;4.706;2022-08-04T19:05:39;25.30;99.90
24146;DHT22;12308;50.948;4.706;2022-08-04T19:08:04;24.70;99.90
24146;DHT22;12308;50.948;4.706;2022-08-04T19:10:30;24.30;99.90
24146;DHT22;12308;50.948;4.706;2022-08-04T19:12:56;23.80;99.90
24146;DHT22;12308;50.948;4.706;2022-08-04T19:15:21;23.50;99.90
24146;DHT22;12308;50.948;4.706;2022-08-04T19:17:47;23.30;99.90
24146;DHT22;12308;50.948;4.706;2022-08-04T19:20:13;23.00;99.90
24146;DHT22;12308;50.948;4.706;2022-08-04T19:22:39;22.80;99.90
24146;DHT22;12308;50.948;4.706;2022-08-04T19:25:05;22.70;99.90
24146;DHT22;12308;50.948;4.706;2022-08-04T19:27:31;22.60;99.90
24146;DHT22;12308;50.948;4.706;2022-08-04T19:29:56;22.50;99.90
24146;DHT22;12308;50.948;4.706;2022-08-04T19:32:22;22.50;99.90
24146;DHT22;12308;50.948;4.706;2022-08-04T19:34:48;22.60;99.90
24146;DHT22;12308;50.948;4.706;2022-08-04T19:37:15;22.50;99.90
24146;DHT22;12308;50.948;4.706;2022-08-04T19:39:41;22.30;99.90
24146;DHT22;12308;50.948;4.706;2022-08-04T19:42:07;22.10;99.90
24146;DHT22;12308;50.948;4.706;2022-08-04T19:44:32;22.00;99.90
24146;DHT22;12308;50.948;4.706;2022-08-04T19:46:58;22.00;99.90
24146;DHT22;12308;50.948;4.706;2022-08-04T19:49:24;21.90;99.90
24146;DHT22;12308;50.948;4.706;2022-08-04T19:51:50;22.10;99.90
24146;DHT22;12308;50.948;4.706;2022-08-04T19:54:16;22.20;99.90
24146;DHT22;12308;50.948;4.706;2022-08-04T19:56:42;22.20;99.90
24146;DHT22;12308;50.948;4.706;2022-08-04T19:59:11;22.30;99.90
24146;DHT22;12308;50.948;4.706;2022-08-04T20:01:36;22.50;99.90
24146;DHT22;12308;50.948;4.706;2022-08-04T20:04:03;22.40;99.90
24146;DHT22;12308;50.948;4.706;2022-08-04T20:06:28;22.40;99.90
24146;DHT22;12308;50.948;4.706;2022-08-04T20:08:55;22.50;99.90
24146;DHT22;12308;50.948;4.706;2022-08-04T20:11:20;22.50;99.90
24146;DHT22;12308;50.948;4.706;2022-08-04T20:13:46;22.50;99.90
24146;DHT22;12308;50.948;4.706;2022-08-04T20:16:12;22.60;99.90
24146;DHT22;12308;50.948;4.706;2022-08-04T20:18:39;22.60;99.90
24146;DHT22;12308;50.948;4.706;2022-08-04T20:21:05;22.80;99.90
24146;DHT22;12308;50.948;4.706;2022-08-04T20:23:30;22.60;99.90
24146;DHT22;12308;50.948;4.706;2022-08-04T20:25:56;22.30;99.90
24146;DHT22;12308;50.948;4.706;2022-08-04T20:28:22;22.00;99.90
24146;DHT22;12308;50.948;4.706;2022-08-04T20:30:49;21.70;99.90
24146;DHT22;12308;50.948;4.706;2022-08-04T20:33:15;21.40;99.90
24146;DHT22;12308;50.948;4.706;2022-08-04T20:35:41;21.10;99.90
24146;DHT22;12308;50.948;4.706;2022-08-04T20:38:06;21.00;99.90
24146;DHT22;12308;50.948;4.706;2022-08-04T20:40:32;21.10;99.90
24146;DHT22;12308;50.948;4.706;2022-08-04T20:42:58;21.20;99.90
24146;DHT22;12308;50.948;4.706;2022-08-04T20:45:24;21.20;99.90
24146;DHT22;12308;50.948;4.706;2022-08-04T20:47:49;21.30;99.90
24146;DHT22;12308;50.948;4.706;2022-08-04T20:50:15;21.50;99.90